sensor_id;sensor_type;location;lat;lon;timestamp;temperature;humidity
12839;DHT22;6486;51.034;5.262;2023-03-01T00:01:07;2.20;54.20
12839;DHT22;6486;51.034;5.262;2023-03-01T00:03:33;2.10;54.10
12839;DHT22;6486;51.034;5.262;2023-03-01T00:05:59;2.10;54.20
12839;DHT22;6486;51.034;5.262;2023-03-01T00:08:26;2.10;54.20
12839;DHT22;6486;51.034;5.262;2023-03-01T00:11:06;2.10;54.30
12839;DHT22;6486;51.034;5.262;2023-03-01T00:13:33;2.00;54.30
12839;DHT22;6486;51.034;5.262;2023-03-01T00:16:02;2.00;54.50
12839;DHT22;6486;51.034;5.262;2023-03-01T00:18:27;1.90;54.50
12839;DHT22;6486;51.034;5.262;2023-03-01T00:20:54;1.90;54.70
12839;DHT22;6486;51.034;5.262;2023-03-01T00:23:20;1.90;54.70
12839;DHT22;6486;51.034;5.262;2023-03-01T00:25:47;1.80;54.60
12839;DHT22;6486;51.034;5.262;2023-03-01T00:28:12;1.80;54.70
12839;DHT22;6486;51.034;5.262;2023-03-01T00:30:38;1.80;54.70
12839;DHT22;6486;51.034;5.262;2023-03-01T00:33:04;1.80;54.80
12839;DHT22;6486;51.034;5.262;2023-03-01T00:35:32;1.80;55.00
12839;DHT22;6486;51.034;5.262;2023-03-01T00:37:58;1.80;55.10
12839;DHT22;6486;51.034;5.262;2023-03-01T00:40:25;1.70;55.10
12839;DHT22;6486;51.034;5.262;2023-03-01T00:42:51;1.70;55.20
12839;DHT22;6486;51.034;5.262;2023-03-01T00:45:16;1.70;55.30
12839;DHT22;6486;51.034;5.262;2023-03-01T00:47:42;1.70;55.40
12839;DHT22;6486;51.034;5.262;2023-03-01T00:50:08;1.70;55.50
12839;DHT22;6486;51.034;5.262;2023-03-01T00:52:34;1.60;55.50
12839;DHT22;6486;51.034;5.262;2023-03-01T00:55:00;1.60;55.70
12839;DHT22;6486;51.034;5.262;2023-03-01T00:57:25;1.60;55.80
12839;DHT22;6486;51.034;5.262;2023-03-01T00:59:51;1.60;55.90
12839;DHT22;6486;51.034;5.262;2023-03-01T01:02:18;1.60;55.90
12839;DHT22;6486;51.034;5.262;2023-03-01T01:04:44;1.50;55.90
12839;DHT22;6486;51.034;5.262;2023-03-01T01:07:10;1.50;56.00
12839;DHT22;6486;51.034;5.262;2023-03-01T01:09:36;1.50;56.20
12839;DHT22;6486;51.034;5.262;2023-03-01T01:12:02;1.50;56.20
12839;DHT22;6486;51.034;5.262;2023-03-01T01:14:27;1.50;56.20
12839;DHT22;6486;51.034;5.262;2023-03-01T01:16:53;1.40;56.30
12839;DHT22;6486;51.034;5.262;2023-03-01T01:19:19;1.40;56.30
12839;DHT22;6486;51.034;5.262;2023-03-01T01:21:45;1.40;57.00
12839;DHT22;6486;51.034;5.262;2023-03-01T01:24:11;1.40;56.50
12839;DHT22;6486;51.034;5.262;2023-03-01T01:26:37;1.40;56.50
12839;DHT22;6486;51.034;5.262;2023-03-01T01:29:04;1.40;56.50
12839;DHT22;6486;51.034;5.262;2023-03-01T01:31:31;1.40;56.50
12839;DHT22;6486;51.034;5.262;2023-03-01T01:33:58;1.40;56.60
12839;DHT22;6486;51.034;5.262;2023-03-01T01:36:24;1.40;56.60
12839;DHT22;6486;51.034;5.262;2023-03-01T01:38:50;1.40;56.70
12839;DHT22;6486;51.034;5.262;2023-03-01T01:41:16;1.40;56.70
12839;DHT22;6486;51.034;5.262;2023-03-01T01:43:45;1.40;56.80
12839;DHT22;6486;51.034;5.262;2023-03-01T01:46:29;1.40;56.90
12839;DHT22;6486;51.034;5.262;2023-03-01T01:49:05;1.40;56.90
12839;DHT22;6486;51.034;5.262;2023-03-01T01:51:37;1.40;56.80
12839;DHT22;6486;51.034;5.262;2023-03-01T01:54:12;1.40;56.80
12839;DHT22;6486;51.034;5.262;2023-03-01T01:56:41;1.40;56.80
12839;DHT22;6486;51.034;5.262;2023-03-01T01:59:08;1.30;56.70
12839;DHT22;6486;51.034;5.262;2023-03-01T02:01:34;1.30;56.70
12839;DHT22;6486;51.034;5.262;2023-03-01T02:04:00;1.30;56.70
12839;DHT22;6486;51.034;5.262;2023-03-01T02:06:33;1.30;56.70
12839;DHT22;6486;51.034;5.262;2023-03-01T02:09:04;1.30;56.80
12839;DHT22;6486;51.034;5.262;2023-03-01T02:11:32;1.20;56.80
12839;DHT22;6486;51.034;5.262;2023-03-01T02:13:59;1.20;56.90
12839;DHT22;6486;51.034;5.262;2023-03-01T02:16:26;1.20;57.00
12839;DHT22;6486;51.034;5.262;2023-03-01T02:18:52;1.20;57.10
12839;DHT22;6486;51.034;5.262;2023-03-01T02:27:02;1.10;57.10
12839;DHT22;6486;51.034;5.262;2023-03-01T02:29:28;1.10;57.10
12839;DHT22;6486;51.034;5.262;2023-03-01T02:31:56;1.10;57.20
12839;DHT22;6486;51.034;5.262;2023-03-01T02:34:24;1.10;57.30
12839;DHT22;6486;51.034;5.262;2023-03-01T02:36:58;1.10;57.30
12839;DHT22;6486;51.034;5.262;2023-03-01T02:39:32;1.10;57.30
12839;DHT22;6486;51.034;5.262;2023-03-01T02:41:58;1.10;57.30
12839;DHT22;6486;51.034;5.262;2023-03-01T02:44:25;1.10;57.30
12839;DHT22;6486;51.034;5.262;2023-03-01T02:46:53;1.10;57.40
12839;DHT22;6486;51.034;5.262;2023-03-01T02:49:30;1.10;57.40
12839;DHT22;6486;51.034;5.262;2023-03-01T02:57:23;1.10;57.40
12839;DHT22;6486;51.034;5.262;2023-03-01T02:59:50;1.00;57.40
12839;DHT22;6486;51.034;5.262;2023-03-01T03:02:25;1.00;57.40
12839;DHT22;6486;51.034;5.262;2023-03-01T03:07:32;0.90;57.60
12839;DHT22;6486;51.034;5.262;2023-03-01T03:09:59;0.90;57.70
12839;DHT22;6486;51.034;5.262;2023-03-01T03:12:24;0.90;57.70
12839;DHT22;6486;51.034;5.262;2023-03-01T03:14:50;0.90;57.80
12839;DHT22;6486;51.034;5.262;2023-03-01T03:17:16;0.80;57.70
12839;DHT22;6486;51.034;5.262;2023-03-01T03:19:41;0.80;57.80
12839;DHT22;6486;51.034;5.262;2023-03-01T03:22:11;0.80;57.80
12839;DHT22;6486;51.034;5.262;2023-03-01T03:24:37;0.80;57.90
12839;DHT22;6486;51.034;5.262;2023-03-01T03:27:04;0.80;58.00
12839;DHT22;6486;51.034;5.262;2023-03-01T03:29:29;0.80;58.00
12839;DHT22;6486;51.034;5.262;2023-03-01T03:31:55;0.80;58.10
12839;DHT22;6486;51.034;5.262;2023-03-01T03:34:21;0.80;58.20
12839;DHT22;6486;51.034;5.262;2023-03-01T03:36:46;0.70;58.10
12839;DHT22;6486;51.034;5.262;2023-03-01T03:39:12;0.70;58.20
12839;DHT22;6486;51.034;5.262;2023-03-01T03:41:37;0.70;58.20
12839;DHT22;6486;51.034;5.262;2023-03-01T03:44:03;0.70;58.20
12839;DHT22;6486;51.034;5.262;2023-03-01T03:46:29;0.70;58.20
12839;DHT22;6486;51.034;5.262;2023-03-01T03:48:54;0.70;58.40
12839;DHT22;6486;51.034;5.262;2023-03-01T03:51:20;0.70;58.40
12839;DHT22;6486;51.034;5.262;2023-03-01T03:53:48;0.70;58.40
12839;DHT22;6486;51.034;5.262;2023-03-01T03:56:14;0.60;58.50
12839;DHT22;6486;51.034;5.262;2023-03-01T03:58:39;0.70;58.50
12839;DHT22;6486;51.034;5.262;2023-03-01T04:01:05;0.60;58.50
12839;DHT22;6486;51.034;5.262;2023-03-01T04:03:32;0.60;58.60
12839;DHT22;6486;51.034;5.262;2023-03-01T04:05:59;0.60;58.60
12839;DHT22;6486;51.034;5.262;2023-03-01T04:08:25;0.60;58.60
12839;DHT22;6486;51.034;5.262;2023-03-01T04:10:53;0.60;58.70
12839;DHT22;6486;51.034;5.262;2023-03-01T04:13:22;0.60;58.70
12839;DHT22;6486;51.034;5.262;2023-03-01T04:15:51;0.60;58.70
12839;DHT22;6486;51.034;5.262;2023-03-01T04:18:18;0.50;58.60
12839;DHT22;6486;51.034;5.262;2023-03-01T04:20:45;0.50;58.70
12839;DHT22;6486;51.034;5.262;2023-03-01T04:23:17;0.50;58.70
12839;DHT22;6486;51.034;5.262;2023-03-01T04:25:50;0.50;58.70
12839;DHT22;6486;51.034;5.262;2023-03-01T04:30:54;0.50;58.70
12839;DHT22;6486;51.034;5.262;2023-03-01T04:33:20;0.50;58.80
12839;DHT22;6486;51.034;5.262;2023-03-01T04:35:46;0.50;58.80
12839;DHT22;6486;51.034;5.262;2023-03-01T04:38:15;0.40;58.80
12839;DHT22;6486;51.034;5.262;2023-03-01T04:40:41;0.50;58.90
12839;DHT22;6486;51.034;5.262;2023-03-01T04:43:09;0.40;58.80
12839;DHT22;6486;51.034;5.262;2023-03-01T04:45:35;0.40;58.70
12839;DHT22;6486;51.034;5.262;2023-03-01T04:48:01;0.40;58.80
12839;DHT22;6486;51.034;5.262;2023-03-01T04:50:27;0.40;58.80
12839;DHT22;6486;51.034;5.262;2023-03-01T04:52:52;0.30;58.80
12839;DHT22;6486;51.034;5.262;2023-03-01T04:55:18;0.30;58.80
12839;DHT22;6486;51.034;5.262;2023-03-01T04:57:44;0.30;58.90
12839;DHT22;6486;51.034;5.262;2023-03-01T05:00:12;0.30;59.00
12839;DHT22;6486;51.034;5.262;2023-03-01T05:02:55;0.20;59.00
12839;DHT22;6486;51.034;5.262;2023-03-01T05:07:52;0.20;59.30
12839;DHT22;6486;51.034;5.262;2023-03-01T05:10:17;0.20;59.30
12839;DHT22;6486;51.034;5.262;2023-03-01T05:12:43;0.10;59.30
12839;DHT22;6486;51.034;5.262;2023-03-01T05:15:09;0.10;59.30
12839;DHT22;6486;51.034;5.262;2023-03-01T05:17:35;0.10;59.30
12839;DHT22;6486;51.034;5.262;2023-03-01T05:20:00;0.10;59.40
12839;DHT22;6486;51.034;5.262;2023-03-01T05:22:26;0.10;59.40
12839;DHT22;6486;51.034;5.262;2023-03-01T05:24:52;0.10;59.50
12839;DHT22;6486;51.034;5.262;2023-03-01T05:27:19;0.10;59.50
12839;DHT22;6486;51.034;5.262;2023-03-01T05:29:48;0.10;59.40
12839;DHT22;6486;51.034;5.262;2023-03-01T05:32:13;0.10;59.50
12839;DHT22;6486;51.034;5.262;2023-03-01T05:34:41;0.00;59.50
12839;DHT22;6486;51.034;5.262;2023-03-01T05:37:07;0.00;59.50
12839;DHT22;6486;51.034;5.262;2023-03-01T05:39:33;0.00;59.60
12839;DHT22;6486;51.034;5.262;2023-03-01T05:42:00;0.00;59.70
12839;DHT22;6486;51.034;5.262;2023-03-01T05:44:27;0.00;59.70
12839;DHT22;6486;51.034;5.262;2023-03-01T05:46:53;0.00;59.80
12839;DHT22;6486;51.034;5.262;2023-03-01T05:49:19;0.00;59.70
12839;DHT22;6486;51.034;5.262;2023-03-01T05:51:48;0.00;60.40
12839;DHT22;6486;51.034;5.262;2023-03-01T05:54:14;0.00;59.80
12839;DHT22;6486;51.034;5.262;2023-03-01T05:56:40;0.00;59.80
12839;DHT22;6486;51.034;5.262;2023-03-01T05:59:06;0.00;59.80
12839;DHT22;6486;51.034;5.262;2023-03-01T06:01:32;0.00;59.80
12839;DHT22;6486;51.034;5.262;2023-03-01T06:03:58;0.00;59.90
12839;DHT22;6486;51.034;5.262;2023-03-01T06:06:24;0.00;59.90
12839;DHT22;6486;51.034;5.262;2023-03-01T06:08:51;0.00;59.90
12839;DHT22;6486;51.034;5.262;2023-03-01T06:11:16;0.00;59.90
12839;DHT22;6486;51.034;5.262;2023-03-01T06:13:43;0.00;60.00
12839;DHT22;6486;51.034;5.262;2023-03-01T06:16:09;0.00;60.00
12839;DHT22;6486;51.034;5.262;2023-03-01T06:18:35;0.00;60.00
12839;DHT22;6486;51.034;5.262;2023-03-01T06:21:01;-0.10;60.00
12839;DHT22;6486;51.034;5.262;2023-03-01T06:23:26;-0.10;60.00
12839;DHT22;6486;51.034;5.262;2023-03-01T06:25:52;0.00;60.00
12839;DHT22;6486;51.034;5.262;2023-03-01T06:28:18;-0.10;60.00
12839;DHT22;6486;51.034;5.262;2023-03-01T06:30:44;-0.10;60.00
12839;DHT22;6486;51.034;5.262;2023-03-01T06:33:10;-0.10;60.10
12839;DHT22;6486;51.034;5.262;2023-03-01T06:35:35;0.00;60.20
12839;DHT22;6486;51.034;5.262;2023-03-01T06:38:03;0.00;60.10
12839;DHT22;6486;51.034;5.262;2023-03-01T06:40:30;0.00;60.10
12839;DHT22;6486;51.034;5.262;2023-03-01T06:42:56;0.00;60.10
12839;DHT22;6486;51.034;5.262;2023-03-01T06:45:22;0.00;60.00
12839;DHT22;6486;51.034;5.262;2023-03-01T06:47:48;-0.10;59.90
12839;DHT22;6486;51.034;5.262;2023-03-01T06:50:15;0.00;60.10
12839;DHT22;6486;51.034;5.262;2023-03-01T06:52:41;-0.10;60.10
12839;DHT22;6486;51.034;5.262;2023-03-01T06:55:07;0.00;60.10
12839;DHT22;6486;51.034;5.262;2023-03-01T06:57:32;0.00;60.20
12839;DHT22;6486;51.034;5.262;2023-03-01T06:59:58;0.00;60.20
12839;DHT22;6486;51.034;5.262;2023-03-01T07:02:24;0.00;60.10
12839;DHT22;6486;51.034;5.262;2023-03-01T07:04:50;0.00;60.10
12839;DHT22;6486;51.034;5.262;2023-03-01T07:07:16;0.10;60.10
12839;DHT22;6486;51.034;5.262;2023-03-01T07:09:44;0.10;60.70
12839;DHT22;6486;51.034;5.262;2023-03-01T07:12:09;0.10;60.10
12839;DHT22;6486;51.034;5.262;2023-03-01T07:14:35;0.10;60.10
12839;DHT22;6486;51.034;5.262;2023-03-01T07:17:01;0.10;60.10
12839;DHT22;6486;51.034;5.262;2023-03-01T07:19:26;0.20;60.30
12839;DHT22;6486;51.034;5.262;2023-03-01T07:21:52;0.20;60.30
12839;DHT22;6486;51.034;5.262;2023-03-01T07:24:17;0.30;60.30
12839;DHT22;6486;51.034;5.262;2023-03-01T07:26:43;0.30;60.30
12839;DHT22;6486;51.034;5.262;2023-03-01T07:29:10;0.40;60.30
12839;DHT22;6486;51.034;5.262;2023-03-01T07:31:35;0.40;60.30
12839;DHT22;6486;51.034;5.262;2023-03-01T07:34:02;0.40;60.60
12839;DHT22;6486;51.034;5.262;2023-03-01T07:36:28;0.50;60.40
12839;DHT22;6486;51.034;5.262;2023-03-01T07:38:53;0.50;60.30
12839;DHT22;6486;51.034;5.262;2023-03-01T07:41:21;0.60;60.50
12839;DHT22;6486;51.034;5.262;2023-03-01T07:43:47;0.60;60.50
12839;DHT22;6486;51.034;5.262;2023-03-01T07:46:13;0.70;60.60
12839;DHT22;6486;51.034;5.262;2023-03-01T07:48:38;0.80;60.70
12839;DHT22;6486;51.034;5.262;2023-03-01T07:51:06;0.90;60.70
12839;DHT22;6486;51.034;5.262;2023-03-01T07:53:32;1.00;60.80
12839;DHT22;6486;51.034;5.262;2023-03-01T07:56:06;1.10;60.80
12839;DHT22;6486;51.034;5.262;2023-03-01T07:58:38;1.20;60.80
12839;DHT22;6486;51.034;5.262;2023-03-01T08:01:06;1.30;60.80
12839;DHT22;6486;51.034;5.262;2023-03-01T08:03:32;1.40;60.70
12839;DHT22;6486;51.034;5.262;2023-03-01T08:06:02;1.50;60.60
12839;DHT22;6486;51.034;5.262;2023-03-01T08:08:28;1.60;60.60
12839;DHT22;6486;51.034;5.262;2023-03-01T08:10:57;1.80;60.60
12839;DHT22;6486;51.034;5.262;2023-03-01T08:13:22;1.90;60.50
12839;DHT22;6486;51.034;5.262;2023-03-01T08:15:49;2.00;60.40
12839;DHT22;6486;51.034;5.262;2023-03-01T08:18:15;2.10;60.30
12839;DHT22;6486;51.034;5.262;2023-03-01T08:20:41;2.20;60.20
12839;DHT22;6486;51.034;5.262;2023-03-01T08:23:07;2.40;60.20
12839;DHT22;6486;51.034;5.262;2023-03-01T08:25:32;2.50;60.00
12839;DHT22;6486;51.034;5.262;2023-03-01T08:27:58;2.60;59.90
12839;DHT22;6486;51.034;5.262;2023-03-01T08:30:23;2.70;59.80
12839;DHT22;6486;51.034;5.262;2023-03-01T08:32:50;2.80;59.80
12839;DHT22;6486;51.034;5.262;2023-03-01T08:35:16;3.00;59.70
12839;DHT22;6486;51.034;5.262;2023-03-01T08:37:41;3.10;59.60
12839;DHT22;6486;51.034;5.262;2023-03-01T08:40:08;3.20;59.60
12839;DHT22;6486;51.034;5.262;2023-03-01T08:42:36;3.30;59.40
12839;DHT22;6486;51.034;5.262;2023-03-01T08:45:02;3.40;59.40
12839;DHT22;6486;51.034;5.262;2023-03-01T08:47:28;3.50;59.20
12839;DHT22;6486;51.034;5.262;2023-03-01T08:49:53;3.60;59.20
12839;DHT22;6486;51.034;5.262;2023-03-01T08:52:20;3.70;59.20
12839;DHT22;6486;51.034;5.262;2023-03-01T08:54:47;3.80;58.90
12839;DHT22;6486;51.034;5.262;2023-03-01T08:57:13;3.90;58.90
12839;DHT22;6486;51.034;5.262;2023-03-01T08:59:39;4.00;58.80
12839;DHT22;6486;51.034;5.262;2023-03-01T09:02:08;4.10;58.70
12839;DHT22;6486;51.034;5.262;2023-03-01T09:04:35;4.20;58.60
12839;DHT22;6486;51.034;5.262;2023-03-01T09:07:01;4.30;58.50
12839;DHT22;6486;51.034;5.262;2023-03-01T09:09:26;4.40;58.40
12839;DHT22;6486;51.034;5.262;2023-03-01T09:11:52;4.50;58.20
12839;DHT22;6486;51.034;5.262;2023-03-01T09:14:17;4.60;58.00
12839;DHT22;6486;51.034;5.262;2023-03-01T09:16:43;4.60;57.90
12839;DHT22;6486;51.034;5.262;2023-03-01T09:19:09;4.70;57.80
12839;DHT22;6486;51.034;5.262;2023-03-01T09:21:34;4.80;57.80
12839;DHT22;6486;51.034;5.262;2023-03-01T09:24:00;4.90;57.50
12839;DHT22;6486;51.034;5.262;2023-03-01T09:26:25;5.00;57.50
12839;DHT22;6486;51.034;5.262;2023-03-01T09:28:54;5.00;57.30
12839;DHT22;6486;51.034;5.262;2023-03-01T09:31:22;5.20;57.10
12839;DHT22;6486;51.034;5.262;2023-03-01T09:33:50;5.20;56.90
12839;DHT22;6486;51.034;5.262;2023-03-01T09:36:21;5.30;56.70
12839;DHT22;6486;51.034;5.262;2023-03-01T09:38:48;5.40;56.60
12839;DHT22;6486;51.034;5.262;2023-03-01T09:46:45;5.60;56.30
12839;DHT22;6486;51.034;5.262;2023-03-01T09:49:18;5.70;56.20
12839;DHT22;6486;51.034;5.262;2023-03-01T09:54:47;5.80;56.00
12839;DHT22;6486;51.034;5.262;2023-03-01T09:57:45;5.90;55.80
12839;DHT22;6486;51.034;5.262;2023-03-01T10:06:14;6.20;55.40
12839;DHT22;6486;51.034;5.262;2023-03-01T10:08:48;6.20;55.20
12839;DHT22;6486;51.034;5.262;2023-03-01T10:11:41;6.30;55.10
12839;DHT22;6486;51.034;5.262;2023-03-01T10:17:30;6.40;55.20
12839;DHT22;6486;51.034;5.262;2023-03-01T10:20:22;6.50;54.40
12839;DHT22;6486;51.034;5.262;2023-03-01T10:22:49;6.60;54.30
12839;DHT22;6486;51.034;5.262;2023-03-01T10:31:17;6.80;53.90
12839;DHT22;6486;51.034;5.262;2023-03-01T10:33:44;6.90;53.90
12839;DHT22;6486;51.034;5.262;2023-03-01T10:36:10;7.00;53.60
12839;DHT22;6486;51.034;5.262;2023-03-01T10:38:56;7.00;53.80
12839;DHT22;6486;51.034;5.262;2023-03-01T10:41:24;7.10;53.00
12839;DHT22;6486;51.034;5.262;2023-03-01T10:43:53;7.20;53.10
12839;DHT22;6486;51.034;5.262;2023-03-01T10:46:33;7.30;53.20
12839;DHT22;6486;51.034;5.262;2023-03-01T10:49:06;7.40;53.00
12839;DHT22;6486;51.034;5.262;2023-03-01T10:51:32;7.50;53.10
12839;DHT22;6486;51.034;5.262;2023-03-01T10:53:58;7.60;53.00
12839;DHT22;6486;51.034;5.262;2023-03-01T10:56:23;7.70;52.90
12839;DHT22;6486;51.034;5.262;2023-03-01T11:01:26;7.90;52.50
12839;DHT22;6486;51.034;5.262;2023-03-01T11:06:34;8.10;52.30
12839;DHT22;6486;51.034;5.262;2023-03-01T11:09:22;8.20;52.00
12839;DHT22;6486;51.034;5.262;2023-03-01T11:11:53;8.30;51.40
12839;DHT22;6486;51.034;5.262;2023-03-01T11:14:22;8.30;51.10
12839;DHT22;6486;51.034;5.262;2023-03-01T11:16:58;8.40;51.20
12839;DHT22;6486;51.034;5.262;2023-03-01T11:19:24;8.50;51.00
12839;DHT22;6486;51.034;5.262;2023-03-01T11:22:19;8.50;50.70
12839;DHT22;6486;51.034;5.262;2023-03-01T11:24:54;8.60;50.20
12839;DHT22;6486;51.034;5.262;2023-03-01T11:27:32;8.60;50.00
12839;DHT22;6486;51.034;5.262;2023-03-01T11:30:05;8.60;49.60
12839;DHT22;6486;51.034;5.262;2023-03-01T11:35:36;8.80;49.70
12839;DHT22;6486;51.034;5.262;2023-03-01T11:40:41;9.00;49.30
12839;DHT22;6486;51.034;5.262;2023-03-01T11:51:41;9.40;48.80
12839;DHT22;6486;51.034;5.262;2023-03-01T11:56:55;9.60;48.80
12839;DHT22;6486;51.034;5.262;2023-03-01T11:59:35;9.80;48.70
12839;DHT22;6486;51.034;5.262;2023-03-01T12:10:43;10.10;47.00
12839;DHT22;6486;51.034;5.262;2023-03-01T12:21:28;10.30;46.20
12839;DHT22;6486;51.034;5.262;2023-03-01T12:24:03;10.20;45.80
12839;DHT22;6486;51.034;5.262;2023-03-01T12:29:41;10.30;45.70
12839;DHT22;6486;51.034;5.262;2023-03-01T12:41:57;10.40;45.00
12839;DHT22;6486;51.034;5.262;2023-03-01T12:49:59;10.40;44.90
12839;DHT22;6486;51.034;5.262;2023-03-01T12:52:41;10.40;45.00
12839;DHT22;6486;51.034;5.262;2023-03-01T12:58:12;10.60;45.20
12839;DHT22;6486;51.034;5.262;2023-03-01T13:03:52;10.60;44.40
12839;DHT22;6486;51.034;5.262;2023-03-01T13:07:25;10.60;44.20
12839;DHT22;6486;51.034;5.262;2023-03-01T13:12:03;10.60;44.00
12839;DHT22;6486;51.034;5.262;2023-03-01T13:16:58;10.70;44.00
12839;DHT22;6486;51.034;5.262;2023-03-01T13:19:27;10.70;43.80
12839;DHT22;6486;51.034;5.262;2023-03-01T13:21:58;10.70;43.80
12839;DHT22;6486;51.034;5.262;2023-03-01T13:24:39;10.70;43.70
12839;DHT22;6486;51.034;5.262;2023-03-01T13:29:52;10.60;43.50
12839;DHT22;6486;51.034;5.262;2023-03-01T13:37:35;10.60;43.70
12839;DHT22;6486;51.034;5.262;2023-03-01T13:40:56;10.70;44.00
12839;DHT22;6486;51.034;5.262;2023-03-01T13:42:55;10.70;43.90
12839;DHT22;6486;51.034;5.262;2023-03-01T13:48:02;10.70;43.40
12839;DHT22;6486;51.034;5.262;2023-03-01T13:50:36;10.70;43.40
12839;DHT22;6486;51.034;5.262;2023-03-01T13:53:06;10.70;43.50
12839;DHT22;6486;51.034;5.262;2023-03-01T13:55:43;10.70;43.50
12839;DHT22;6486;51.034;5.262;2023-03-01T14:00:41;10.80;42.90
12839;DHT22;6486;51.034;5.262;2023-03-01T14:03:16;10.80;42.80
12839;DHT22;6486;51.034;5.262;2023-03-01T14:06:04;10.80;42.80
12839;DHT22;6486;51.034;5.262;2023-03-01T14:08:33;10.90;42.80
12839;DHT22;6486;51.034;5.262;2023-03-01T14:16:28;10.90;42.40
12839;DHT22;6486;51.034;5.262;2023-03-01T14:21:31;10.90;42.70
12839;DHT22;6486;51.034;5.262;2023-03-01T14:23:58;11.00;42.70
12839;DHT22;6486;51.034;5.262;2023-03-01T14:26:24;11.00;42.60
12839;DHT22;6486;51.034;5.262;2023-03-01T14:28:50;11.10;42.50
12839;DHT22;6486;51.034;5.262;2023-03-01T14:31:42;11.20;42.20
12839;DHT22;6486;51.034;5.262;2023-03-01T14:34:22;11.20;42.20
12839;DHT22;6486;51.034;5.262;2023-03-01T14:36:48;11.20;42.20
12839;DHT22;6486;51.034;5.262;2023-03-01T14:39:19;11.30;42.20
12839;DHT22;6486;51.034;5.262;2023-03-01T14:41:46;11.40;42.30
12839;DHT22;6486;51.034;5.262;2023-03-01T14:44:23;11.40;42.90
12839;DHT22;6486;51.034;5.262;2023-03-01T14:46:55;11.50;42.10
12839;DHT22;6486;51.034;5.262;2023-03-01T14:49:25;11.50;42.00
12839;DHT22;6486;51.034;5.262;2023-03-01T14:52:03;11.50;41.80
12839;DHT22;6486;51.034;5.262;2023-03-01T14:54:41;11.60;42.00
12839;DHT22;6486;51.034;5.262;2023-03-01T14:57:19;11.80;42.30
12839;DHT22;6486;51.034;5.262;2023-03-01T14:59:45;11.90;42.30
12839;DHT22;6486;51.034;5.262;2023-03-01T15:02:23;12.20;42.20
12839;DHT22;6486;51.034;5.262;2023-03-01T15:04:57;12.40;42.00
12839;DHT22;6486;51.034;5.262;2023-03-01T15:07:29;12.70;42.50
12839;DHT22;6486;51.034;5.262;2023-03-01T15:09:56;13.00;41.50
12839;DHT22;6486;51.034;5.262;2023-03-01T15:14:54;13.80;41.00
12839;DHT22;6486;51.034;5.262;2023-03-01T15:19:53;14.60;40.60
12839;DHT22;6486;51.034;5.262;2023-03-01T15:22:19;15.00;40.60
12839;DHT22;6486;51.034;5.262;2023-03-01T15:24:48;15.40;40.40
12839;DHT22;6486;51.034;5.262;2023-03-01T15:27:19;15.80;40.20
12839;DHT22;6486;51.034;5.262;2023-03-01T15:29:55;16.20;39.40
12839;DHT22;6486;51.034;5.262;2023-03-01T15:32:30;16.60;39.50
12839;DHT22;6486;51.034;5.262;2023-03-01T15:34:57;17.20;37.70
12839;DHT22;6486;51.034;5.262;2023-03-01T15:37:46;18.00;36.60
12839;DHT22;6486;51.034;5.262;2023-03-01T15:40:22;18.90;35.60
12839;DHT22;6486;51.034;5.262;2023-03-01T15:42:50;19.90;34.20
12839;DHT22;6486;51.034;5.262;2023-03-01T15:47:51;21.70;31.30
12839;DHT22;6486;51.034;5.262;2023-03-01T15:50:22;20.10;31.00
12839;DHT22;6486;51.034;5.262;2023-03-01T15:52:49;18.70;31.20
12839;DHT22;6486;51.034;5.262;2023-03-01T15:55:21;17.50;31.50
12839;DHT22;6486;51.034;5.262;2023-03-01T15:57:48;16.60;31.90
12839;DHT22;6486;51.034;5.262;2023-03-01T16:00:17;15.70;31.70
12839;DHT22;6486;51.034;5.262;2023-03-01T16:02:45;14.80;32.40
12839;DHT22;6486;51.034;5.262;2023-03-01T16:07:42;13.30;33.80
12839;DHT22;6486;51.034;5.262;2023-03-01T16:10:08;12.70;34.10
12839;DHT22;6486;51.034;5.262;2023-03-01T16:12:34;12.20;34.70
12839;DHT22;6486;51.034;5.262;2023-03-01T16:14:59;11.70;35.20
12839;DHT22;6486;51.034;5.262;2023-03-01T16:17:25;11.40;35.50
12839;DHT22;6486;51.034;5.262;2023-03-01T16:19:51;11.20;35.70
12839;DHT22;6486;51.034;5.262;2023-03-01T16:22:16;10.90;36.10
12839;DHT22;6486;51.034;5.262;2023-03-01T16:24:42;10.60;36.40
12839;DHT22;6486;51.034;5.262;2023-03-01T16:27:08;10.40;36.80
12839;DHT22;6486;51.034;5.262;2023-03-01T16:29:33;10.20;37.30
12839;DHT22;6486;51.034;5.262;2023-03-01T16:32:02;10.00;37.70
12839;DHT22;6486;51.034;5.262;2023-03-01T16:34:28;9.90;39.00
12839;DHT22;6486;51.034;5.262;2023-03-01T16:36:54;9.70;39.30
12839;DHT22;6486;51.034;5.262;2023-03-01T16:39:19;9.60;39.60
12839;DHT22;6486;51.034;5.262;2023-03-01T16:41:45;9.50;39.90
12839;DHT22;6486;51.034;5.262;2023-03-01T16:44:10;9.40;40.20
12839;DHT22;6486;51.034;5.262;2023-03-01T16:46:36;9.20;40.30
12839;DHT22;6486;51.034;5.262;2023-03-01T16:49:01;9.10;40.50
12839;DHT22;6486;51.034;5.262;2023-03-01T16:51:28;9.00;40.80
12839;DHT22;6486;51.034;5.262;2023-03-01T16:53:55;8.90;41.00
12839;DHT22;6486;51.034;5.262;2023-03-01T16:56:20;8.80;41.20
12839;DHT22;6486;51.034;5.262;2023-03-01T16:58:46;8.70;41.40
12839;DHT22;6486;51.034;5.262;2023-03-01T17:01:19;8.60;41.50
12839;DHT22;6486;51.034;5.262;2023-03-01T17:03:46;8.50;41.80
12839;DHT22;6486;51.034;5.262;2023-03-01T17:06:14;8.40;42.00
12839;DHT22;6486;51.034;5.262;2023-03-01T17:08:40;8.40;42.20
12839;DHT22;6486;51.034;5.262;2023-03-01T17:11:11;8.30;42.40
12839;DHT22;6486;51.034;5.262;2023-03-01T17:13:37;8.20;42.50
12839;DHT22;6486;51.034;5.262;2023-03-01T17:16:05;8.20;42.70
12839;DHT22;6486;51.034;5.262;2023-03-01T17:18:32;8.10;42.80
12839;DHT22;6486;51.034;5.262;2023-03-01T17:20:58;8.00;42.90
12839;DHT22;6486;51.034;5.262;2023-03-01T17:23:24;8.00;43.10
12839;DHT22;6486;51.034;5.262;2023-03-01T17:25:49;7.90;43.10
12839;DHT22;6486;51.034;5.262;2023-03-01T17:28:16;7.80;43.30
12839;DHT22;6486;51.034;5.262;2023-03-01T17:30:43;7.80;43.50
12839;DHT22;6486;51.034;5.262;2023-03-01T17:33:10;7.70;43.70
12839;DHT22;6486;51.034;5.262;2023-03-01T17:35:35;7.60;43.60
12839;DHT22;6486;51.034;5.262;2023-03-01T17:38:03;7.60;43.80
12839;DHT22;6486;51.034;5.262;2023-03-01T17:40:29;7.50;43.90
12839;DHT22;6486;51.034;5.262;2023-03-01T17:42:55;7.50;43.90
12839;DHT22;6486;51.034;5.262;2023-03-01T17:45:21;7.40;44.10
12839;DHT22;6486;51.034;5.262;2023-03-01T17:47:47;7.30;44.10
12839;DHT22;6486;51.034;5.262;2023-03-01T17:50:13;7.30;44.20
12839;DHT22;6486;51.034;5.262;2023-03-01T17:52:39;7.30;44.40
12839;DHT22;6486;51.034;5.262;2023-03-01T17:55:07;7.10;44.40
12839;DHT22;6486;51.034;5.262;2023-03-01T17:57:33;7.10;44.60
12839;DHT22;6486;51.034;5.262;2023-03-01T17:59:59;7.00;44.50
12839;DHT22;6486;51.034;5.262;2023-03-01T18:02:24;7.00;44.70
12839;DHT22;6486;51.034;5.262;2023-03-01T18:04:51;6.90;44.70
12839;DHT22;6486;51.034;5.262;2023-03-01T18:07:18;6.90;44.90
12839;DHT22;6486;51.034;5.262;2023-03-01T18:09:44;6.80;44.90
12839;DHT22;6486;51.034;5.262;2023-03-01T18:12:10;6.80;45.10
12839;DHT22;6486;51.034;5.262;2023-03-01T18:14:36;6.70;45.10
12839;DHT22;6486;51.034;5.262;2023-03-01T18:17:02;6.70;45.20
12839;DHT22;6486;51.034;5.262;2023-03-01T18:19:31;6.60;45.20
12839;DHT22;6486;51.034;5.262;2023-03-01T18:21:56;6.60;45.30
12839;DHT22;6486;51.034;5.262;2023-03-01T18:24:22;6.60;45.40
12839;DHT22;6486;51.034;5.262;2023-03-01T18:26:48;6.50;45.50